createdAt,value
2018-04-14T00:01:04.938Z,84.60
2018-04-14T00:03:32.520Z,84.60
2018-04-14T00:06:00.027Z,84.60
2018-04-14T00:08:27.624Z,84.60
2018-04-14T00:10:55.255Z,87.30
2018-04-14T00:13:22.775Z,84.60
2018-04-14T00:15:50.333Z,84.80
2018-04-14T00:18:17.945Z,84.50
2018-04-14T00:20:45.478Z,85.90
2018-04-14T00:23:13.040Z,88.60
2018-04-14T00:25:40.644Z,85.70
2018-04-14T00:28:08.156Z,85.80
2018-04-14T00:30:35.728Z,85.70
2018-04-14T00:33:03.280Z,84.40
2018-04-14T00:35:31.834Z,85.70
2018-04-14T00:37:59.381Z,85.50
2018-04-14T00:40:27.714Z,86.10
2018-04-14T00:42:55.275Z,86.00
2018-04-14T00:45:22.853Z,86.20
2018-04-14T00:47:50.393Z,85.90
2018-04-14T00:50:17.947Z,86.80
2018-04-14T00:52:45.511Z,84.20
2018-04-14T00:55:13.076Z,84.20
2018-04-14T00:57:40.608Z,84.80
2018-04-14T01:00:08.106Z,85.50
2018-04-14T01:02:35.716Z,85.30
2018-04-14T01:05:04.405Z,85.30
2018-04-14T01:07:31.914Z,84.30
2018-04-14T01:10:00.930Z,84.30
2018-04-14T01:12:28.463Z,85.00
2018-04-14T01:14:57.736Z,85.80
2018-04-14T01:17:25.285Z,86.00
2018-04-14T01:19:52.845Z,87.00
2018-04-14T01:22:21.306Z,89.80
2018-04-14T01:24:48.883Z,87.00
2018-04-14T01:27:16.410Z,87.60
2018-04-14T01:29:43.924Z,88.10
2018-04-14T01:32:11.469Z,88.20
2018-04-14T01:34:39.031Z,88.30
2018-04-14T01:37:06.540Z,88.80
2018-04-14T01:39:35.077Z,88.90
2018-04-14T01:42:02.702Z,89.30
2018-04-14T01:44:30.231Z,89.80
2018-04-14T01:46:58.866Z,88.60
2018-04-14T01:49:26.542Z,88.50
2018-04-14T01:51:54.833Z,88.80
2018-04-14T01:54:22.408Z,88.80
2018-04-14T01:56:50.015Z,88.40
2018-04-14T01:59:17.673Z,89.30
2018-04-14T02:01:45.239Z,88.80
2018-04-14T02:04:12.775Z,91.00
2018-04-14T02:06:40.401Z,89.50
2018-04-14T02:09:10.756Z,90.80
2018-04-14T02:11:39.058Z,90.90
2018-04-14T02:14:06.634Z,90.80
2018-04-14T02:16:34.278Z,90.50
2018-04-14T02:19:01.797Z,90.60
2018-04-14T02:21:29.308Z,90.40
2018-04-14T02:23:56.894Z,90.20
2018-04-14T02:26:24.459Z,90.10
2018-04-14T02:28:51.986Z,91.00
2018-04-14T02:31:19.560Z,90.30
2018-04-14T02:33:48.796Z,90.10
2018-04-14T02:36:16.405Z,90.00
2018-04-14T02:38:45.971Z,90.00
2018-04-14T02:41:13.551Z,90.30
2018-04-14T02:43:41.229Z,90.40
2018-04-14T02:46:08.776Z,90.60
2018-04-14T02:48:37.152Z,90.20
2018-04-14T02:51:04.682Z,90.50
2018-04-14T02:53:33.117Z,90.60
2018-04-14T02:56:00.632Z,90.60
2018-04-14T02:58:28.952Z,91.70
2018-04-14T03:00:56.498Z,91.60
2018-04-14T03:03:24.017Z,90.90
2018-04-14T03:05:51.574Z,90.60
2018-04-14T03:08:19.100Z,91.20
2018-04-14T03:10:46.685Z,90.80
2018-04-14T03:13:14.337Z,91.00
2018-04-14T03:15:41.883Z,90.80
2018-04-14T03:18:09.485Z,91.10
2018-04-14T03:20:37.063Z,91.60
2018-04-14T03:23:04.691Z,91.20
2018-04-14T03:25:32.297Z,91.20
2018-04-14T03:27:59.953Z,91.60
2018-04-14T03:30:27.499Z,91.60
2018-04-14T03:32:55.054Z,91.60
2018-04-14T03:35:22.709Z,92.40
2018-04-14T03:37:50.247Z,92.10
2018-04-14T03:40:17.807Z,92.60
2018-04-14T03:42:45.449Z,92.20
2018-04-14T03:45:12.985Z,91.90
2018-04-14T03:47:40.503Z,92.00
2018-04-14T03:50:08.069Z,92.20
2018-04-14T03:52:35.593Z,91.60
2018-04-14T03:55:03.162Z,92.10
2018-04-14T03:57:30.718Z,92.30
2018-04-14T03:59:58.428Z,92.70
2018-04-14T04:02:26.858Z,92.60
2018-04-14T04:04:54.446Z,92.50
2018-04-14T04:07:22.957Z,92.60
2018-04-14T04:09:51.464Z,93.00
2018-04-14T04:12:19.005Z,92.50
2018-04-14T04:14:46.554Z,92.90
2018-04-14T04:17:15.048Z,92.50
2018-04-14T04:19:54.492Z,92.70
2018-04-14T04:22:33.737Z,92.20
2018-04-14T04:28:08.055Z,92.70
2018-04-14T04:30:45.915Z,92.80
2018-04-14T04:33:13.517Z,92.80
2018-04-14T04:35:41.794Z,95.30
2018-04-14T04:38:10.098Z,92.10
2018-04-14T04:40:37.692Z,92.10
2018-04-14T04:43:05.658Z,92.10
2018-04-14T04:45:35.020Z,92.90
2018-04-14T04:48:22.267Z,94.00
2018-04-14T04:50:50.991Z,92.40
2018-04-14T04:56:20.138Z,91.20
2018-04-14T04:58:47.669Z,91.40
2018-04-14T05:01:15.216Z,91.60
2018-04-14T05:03:43.240Z,92.20
2018-04-14T05:06:12.673Z,92.50
2018-04-14T05:08:40.336Z,92.50
2018-04-14T05:11:07.910Z,92.80
2018-04-14T05:13:35.568Z,93.80
2018-04-14T05:16:04.442Z,92.30
2018-04-14T05:18:34.180Z,93.00
2018-04-14T05:21:01.713Z,92.80
2018-04-14T05:23:29.239Z,92.70
2018-04-14T05:25:57.823Z,92.20
2018-04-14T05:28:27.756Z,93.10
2018-04-14T05:30:55.320Z,92.70
2018-04-14T05:33:22.891Z,94.00
2018-04-14T05:35:50.440Z,91.30
2018-04-14T05:38:18.022Z,91.60
2018-04-14T05:40:45.566Z,91.10
2018-04-14T05:43:13.147Z,92.10
2018-04-14T05:45:42.381Z,91.10
2018-04-14T05:48:13.067Z,90.70
2018-04-14T05:50:40.558Z,90.70
2018-04-14T05:53:10.093Z,90.50
2018-04-14T05:55:38.210Z,90.60
2018-04-14T05:58:07.393Z,89.70
2018-04-14T06:00:35.042Z,89.90
2018-04-14T06:03:03.784Z,90.70
2018-04-14T06:05:32.557Z,91.70
2018-04-14T06:08:01.265Z,90.80
2018-04-14T06:10:29.787Z,90.90
2018-04-14T06:12:59.557Z,91.60
2018-04-14T06:15:28.240Z,91.90
2018-04-14T06:17:55.940Z,91.90
2018-04-14T06:20:23.529Z,91.80
2018-04-14T06:22:51.800Z,92.50
2018-04-14T06:25:21.383Z,92.50
2018-04-14T06:27:49.141Z,93.80
2018-04-14T06:30:20.964Z,93.30
2018-04-14T06:33:07.141Z,94.40
2018-04-14T06:35:34.697Z,94.20
2018-04-14T06:38:03.302Z,93.50
2018-04-14T06:43:14.006Z,93.20
2018-04-14T06:45:41.630Z,92.70
2018-04-14T06:48:09.950Z,91.90
2018-04-14T06:50:38.520Z,91.30
2018-04-14T06:53:07.429Z,90.80
2018-04-14T06:55:35.055Z,90.70
2018-04-14T06:58:02.599Z,89.70
2018-04-14T07:00:31.255Z,90.30
2018-04-14T07:02:58.782Z,87.10
2018-04-14T07:05:26.637Z,90.20
2018-04-14T07:07:57.069Z,91.00
2018-04-14T07:10:24.593Z,90.90
2018-04-14T07:12:52.100Z,92.70
2018-04-14T07:15:22.090Z,90.00
2018-04-14T07:17:50.916Z,90.60
2018-04-14T07:20:19.197Z,90.20
2018-04-14T07:22:46.827Z,90.10
2018-04-14T07:25:33.073Z,90.30
2018-04-14T07:28:00.598Z,91.20
2018-04-14T07:33:27.923Z,90.40
2018-04-14T07:35:57.368Z,90.20
2018-04-14T07:38:25.823Z,90.00
2018-04-14T07:40:53.924Z,89.00
2018-04-14T07:43:21.452Z,89.40
2018-04-14T07:45:50.929Z,91.10
2018-04-14T07:48:19.833Z,90.40
2018-04-14T07:50:48.624Z,91.50
2018-04-14T07:53:17.245Z,91.30
2018-04-14T07:55:46.798Z,91.10
2018-04-14T07:58:14.601Z,91.40
2018-04-14T08:00:43.807Z,91.00
2018-04-14T08:03:12.210Z,90.60
2018-04-14T08:05:39.766Z,90.60
2018-04-14T08:08:07.354Z,90.50
2018-04-14T08:10:34.928Z,89.60
2018-04-14T08:13:03.055Z,91.40
2018-04-14T08:15:31.342Z,90.60
2018-04-14T08:17:59.640Z,90.60
2018-04-14T08:20:27.168Z,90.50
2018-04-14T08:22:54.710Z,88.80
2018-04-14T08:25:22.378Z,86.90
2018-04-14T08:27:49.898Z,89.40
2018-04-14T08:30:18.416Z,87.00
2018-04-14T08:32:46.050Z,86.90
2018-04-14T08:35:13.560Z,87.70
2018-04-14T08:37:41.288Z,87.30
2018-04-14T08:40:09.826Z,87.40
2018-04-14T08:42:39.275Z,89.20
2018-04-14T08:45:06.829Z,87.30
2018-04-14T08:47:35.184Z,85.80
2018-04-14T08:50:03.614Z,85.70
2018-04-14T08:52:31.183Z,86.10
2018-04-14T08:54:58.706Z,84.50
2018-04-14T08:57:27.242Z,85.00
2018-04-14T08:59:54.884Z,88.90
2018-04-14T09:02:22.478Z,86.60
2018-04-14T09:04:50.972Z,86.40
2018-04-14T09:07:19.458Z,90.00
2018-04-14T09:09:47.049Z,87.90
2018-04-14T09:12:14.592Z,88.90
2018-04-14T09:14:42.170Z,87.90
2018-04-14T09:17:09.749Z,89.50
2018-04-14T09:19:37.253Z,87.80
2018-04-14T09:22:04.800Z,86.50
2018-04-14T09:24:35.092Z,90.20
2018-04-14T09:27:02.687Z,90.10
2018-04-14T09:29:30.263Z,88.80
2018-04-14T09:31:59.796Z,90.60
2018-04-14T09:34:27.414Z,85.70
2018-04-14T09:37:13.821Z,83.20
2018-04-14T09:39:42.112Z,86.50
2018-04-14T09:44:51.675Z,86.00
2018-04-14T09:47:19.216Z,87.80
2018-04-14T09:49:46.792Z,85.60
2018-04-14T09:52:15.258Z,84.20
2018-04-14T09:54:43.239Z,83.80
2018-04-14T09:57:11.516Z,83.20
2018-04-14T09:59:40.173Z,83.30
2018-04-14T10:02:10.463Z,84.20
2018-04-14T10:04:41.903Z,79.50
2018-04-14T10:07:10.184Z,80.30
2018-04-14T10:09:37.700Z,80.50
2018-04-14T10:12:05.334Z,78.30
2018-04-14T10:14:33.765Z,76.50
2018-04-14T10:17:02.204Z,76.60
2018-04-14T10:19:49.535Z,80.40
2018-04-14T10:22:17.091Z,79.20
2018-04-14T10:24:44.655Z,77.80
2018-04-14T10:29:53.283Z,78.10
2018-04-14T10:32:20.898Z,74.70
2018-04-14T10:34:52.405Z,75.50
2018-04-14T10:37:19.983Z,78.70
2018-04-14T10:39:47.575Z,77.20
2018-04-14T10:42:15.120Z,78.10
2018-04-14T10:44:42.680Z,72.90
2018-04-14T10:47:12.249Z,72.20
2018-04-14T10:49:41.773Z,73.60
2018-04-14T10:52:10.155Z,72.50
2018-04-14T10:54:38.531Z,68.00
2018-04-14T10:57:06.095Z,67.50
2018-04-14T10:59:34.339Z,66.00
2018-04-14T11:02:01.885Z,65.30
2018-04-14T11:04:29.405Z,68.20
2018-04-14T11:06:58.584Z,68.40
2018-04-14T11:09:26.172Z,68.40
2018-04-14T11:11:54.447Z,65.10
2018-04-14T11:14:21.990Z,65.00
2018-04-14T11:16:49.584Z,64.30
2018-04-14T11:19:17.099Z,62.80
2018-04-14T11:21:44.620Z,65.00
2018-04-14T11:24:12.905Z,64.60
2018-04-14T11:26:41.166Z,59.90
2018-04-14T11:29:08.656Z,59.90
2018-04-14T11:31:36.192Z,61.00
2018-04-14T11:34:03.739Z,63.00
2018-04-14T11:36:31.277Z,61.50
2018-04-14T11:38:58.803Z,55.80
2018-04-14T11:41:27.102Z,57.10
2018-04-14T11:43:54.627Z,57.00
2018-04-14T11:46:22.228Z,58.90
2018-04-14T11:48:49.739Z,55.70
2018-04-14T11:51:18.201Z,58.20
2018-04-14T11:53:45.821Z,58.00
2018-04-14T11:56:13.416Z,51.60
2018-04-14T11:58:42.977Z,54.40
2018-04-14T12:01:10.619Z,55.40
2018-04-14T12:03:41.091Z,58.60
2018-04-14T12:06:09.532Z,54.10
2018-04-14T12:08:38.010Z,54.10
2018-04-14T12:11:05.560Z,52.90
2018-04-14T12:13:33.118Z,56.10
2018-04-14T12:16:00.742Z,58.10
2018-04-14T12:18:29.222Z,55.80
2018-04-14T12:20:56.714Z,59.40
2018-04-14T12:23:24.280Z,59.30
2018-04-14T12:25:52.533Z,54.10
2018-04-14T12:28:20.041Z,54.10
2018-04-14T12:30:47.649Z,53.50
2018-04-14T12:33:16.072Z,55.50
2018-04-14T12:35:44.356Z,59.90
2018-04-14T12:38:12.626Z,58.00
2018-04-14T12:40:40.874Z,53.80
2018-04-14T12:43:08.376Z,53.70
2018-04-14T12:45:36.779Z,51.60
2018-04-14T12:48:05.301Z,52.00
2018-04-14T12:50:33.737Z,53.00
2018-04-14T12:53:03.201Z,53.30
2018-04-14T12:55:31.655Z,52.60
2018-04-14T12:57:59.607Z,51.90
2018-04-14T13:00:28.008Z,57.40
2018-04-14T13:02:56.542Z,57.00
2018-04-14T13:08:21.915Z,50.20
2018-04-14T13:10:49.433Z,54.70
2018-04-14T13:13:17.055Z,57.90
2018-04-14T13:15:44.564Z,52.20
2018-04-14T13:18:14.054Z,53.90
2018-04-14T13:20:41.554Z,51.90
2018-04-14T13:23:10.758Z,51.00
2018-04-14T13:25:38.374Z,51.20
2018-04-14T13:28:06.689Z,49.60
2018-04-14T13:30:34.959Z,47.80
2018-04-14T13:33:02.499Z,47.70
2018-04-14T13:35:30.030Z,55.80
2018-04-14T13:37:57.620Z,49.40
2018-04-14T13:40:25.251Z,47.20
2018-04-14T13:42:52.810Z,52.50
2018-04-14T13:45:21.109Z,48.80
2018-04-14T13:47:48.658Z,48.70
2018-04-14T13:50:16.156Z,52.40
2018-04-14T13:52:43.669Z,48.60
2018-04-14T13:55:11.213Z,51.50
2018-04-14T13:57:39.703Z,51.10
2018-04-14T14:00:07.896Z,53.60
2018-04-14T14:02:35.404Z,48.00
2018-04-14T14:05:02.913Z,48.30
2018-04-14T14:07:30.432Z,51.90
2018-04-14T14:09:58.036Z,51.70
2018-04-14T14:12:25.535Z,53.40
2018-04-14T14:14:53.129Z,49.60
2018-04-14T14:17:20.772Z,51.50
2018-04-14T14:19:48.270Z,51.00
2018-04-14T14:22:15.798Z,49.80
2018-04-14T14:24:44.276Z,51.00
2018-04-14T14:27:12.574Z,48.20
2018-04-14T14:29:59.688Z,48.10
2018-04-14T14:32:28.132Z,47.70
2018-04-14T14:34:55.665Z,49.60
2018-04-14T14:37:24.113Z,46.30
2018-04-14T14:39:51.619Z,47.80
2018-04-14T14:42:19.133Z,47.60
2018-04-14T14:44:46.676Z,49.70
2018-04-14T14:47:15.092Z,52.20
2018-04-14T14:49:42.674Z,50.00
2018-04-14T14:52:11.170Z,51.50
2018-04-14T14:54:40.591Z,50.50
2018-04-14T14:57:09.010Z,48.70
2018-04-14T14:59:37.312Z,52.20
2018-04-14T15:02:04.916Z,52.30
2018-04-14T15:04:33.244Z,48.70
2018-04-14T15:07:00.812Z,48.80
2018-04-14T15:09:29.084Z,51.10
2018-04-14T15:11:57.358Z,50.10
2018-04-14T15:14:25.697Z,48.10
2018-04-14T15:16:53.338Z,48.00
2018-04-14T15:19:20.863Z,52.30
2018-04-14T15:21:49.304Z,51.10
2018-04-14T15:24:16.832Z,46.80
2018-04-14T15:26:44.375Z,47.40
2018-04-14T15:40:26.231Z,48.40
2018-04-14T15:43:25.110Z,49.10
2018-04-14T15:46:22.715Z,48.80
2018-04-14T15:49:20.380Z,49.40
2018-04-14T15:51:48.978Z,50.60
2018-04-14T15:54:16.583Z,49.50
2018-04-14T15:56:44.092Z,50.70
2018-04-14T15:59:13.565Z,50.20
2018-04-14T16:01:42.679Z,55.00
2018-04-14T16:04:10.249Z,53.40
2018-04-14T16:06:37.815Z,55.00
2018-04-14T16:09:06.156Z,51.40
2018-04-14T16:11:33.764Z,51.30
2018-04-14T16:14:01.328Z,50.50
2018-04-14T16:16:28.884Z,53.60
2018-04-14T16:18:59.489Z,55.40
2018-04-14T16:21:27.071Z,55.90
2018-04-14T16:23:54.631Z,52.20
2018-04-14T16:26:23.127Z,54.90
2018-04-14T16:28:50.666Z,53.80
2018-04-14T16:31:19.069Z,55.10
2018-04-14T16:33:47.384Z,52.30
2018-04-14T16:36:15.910Z,52.10
2018-04-14T16:38:43.479Z,53.70
2018-04-14T16:41:11.974Z,53.80
2018-04-14T16:43:39.569Z,53.50
2018-04-14T16:46:07.129Z,54.80
2018-04-14T16:48:36.475Z,55.20
2018-04-14T16:51:04.027Z,54.70
2018-04-14T16:53:32.575Z,54.40
2018-04-14T16:56:00.055Z,54.10
2018-04-14T16:58:27.593Z,53.00
2018-04-14T17:00:55.993Z,52.60
2018-04-14T17:03:24.895Z,52.90
2018-04-14T17:05:53.341Z,53.80
2018-04-14T17:08:22.535Z,53.40
2018-04-14T17:10:50.053Z,53.40
2018-04-14T17:13:17.773Z,53.30
2018-04-14T17:15:46.020Z,53.20
2018-04-14T17:18:13.575Z,53.20
2018-04-14T17:20:42.048Z,53.10
2018-04-14T17:23:09.655Z,53.90
2018-04-14T17:25:37.236Z,53.10
2018-04-14T17:28:07.443Z,54.90
2018-04-14T17:30:34.997Z,54.90
2018-04-14T17:33:03.510Z,55.10
2018-04-14T17:35:31.070Z,56.70
2018-04-14T17:37:59.345Z,57.90
2018-04-14T17:40:27.790Z,57.80
2018-04-14T17:42:55.311Z,58.80
2018-04-14T17:45:25.785Z,58.20
2018-04-14T17:47:53.276Z,57.80
2018-04-14T17:50:20.798Z,56.10
2018-04-14T17:52:49.980Z,57.10
2018-04-14T17:55:18.475Z,56.90
2018-04-14T17:57:46.063Z,57.60
2018-04-14T18:00:14.039Z,58.20
2018-04-14T18:02:41.671Z,58.60
2018-04-14T18:05:09.234Z,59.70
2018-04-14T18:07:37.378Z,60.30
2018-04-14T18:10:04.904Z,60.40
2018-04-14T18:12:33.374Z,61.80
2018-04-14T18:15:01.831Z,62.00
2018-04-14T18:17:30.184Z,63.70
2018-04-14T18:19:57.755Z,63.80
2018-04-14T18:22:25.376Z,63.90
2018-04-14T18:24:52.931Z,64.30
2018-04-14T18:27:20.523Z,64.40
2018-04-14T18:29:48.105Z,63.70
2018-04-14T18:32:15.700Z,64.90
2018-04-14T18:34:43.259Z,65.60
2018-04-14T18:37:11.558Z,68.10
2018-04-14T18:39:39.061Z,67.00
2018-04-14T18:42:06.730Z,65.70
2018-04-14T18:44:34.242Z,66.90
2018-04-14T18:47:02.516Z,66.10
2018-04-14T18:49:30.818Z,66.90
2018-04-14T18:51:58.372Z,66.90
2018-04-14T18:54:26.713Z,66.80
2018-04-14T18:56:54.422Z,66.80
2018-04-14T18:59:22.855Z,68.00
2018-04-14T19:01:50.409Z,68.10
2018-04-14T19:04:18.014Z,69.20
2018-04-14T19:06:45.565Z,68.90
2018-04-14T19:09:32.750Z,69.00
2018-04-14T19:12:00.392Z,69.90
2018-04-14T19:14:27.901Z,69.50
2018-04-14T19:16:55.903Z,69.80
2018-04-14T19:19:24.352Z,70.30
2018-04-14T19:21:51.891Z,70.00
2018-04-14T19:24:19.465Z,71.10
2018-04-14T19:26:46.953Z,70.70
2018-04-14T19:29:15.267Z,71.50
2018-04-14T19:31:43.574Z,71.60
2018-04-14T19:34:11.094Z,71.50
2018-04-14T19:36:39.616Z,71.70
2018-04-14T19:39:07.895Z,74.00
2018-04-14T19:41:35.522Z,74.00
2018-04-14T19:44:03.055Z,73.20
2018-04-14T19:46:30.623Z,73.90
2018-04-14T19:48:59.104Z,73.10
2018-04-14T19:51:26.600Z,72.90
2018-04-14T19:54:13.017Z,72.00
2018-04-14T19:59:22.403Z,73.00
2018-04-14T20:01:49.891Z,73.00
2018-04-14T20:04:17.407Z,74.90
2018-04-14T20:06:45.047Z,76.00
2018-04-14T20:09:12.602Z,76.80
2018-04-14T20:11:41.045Z,75.80
2018-04-14T20:14:08.565Z,75.60
2018-04-14T20:16:36.106Z,74.60
2018-04-14T20:19:03.620Z,74.60
2018-04-14T20:21:31.921Z,76.10
2018-04-14T20:23:59.469Z,76.90
2018-04-14T20:26:27.937Z,76.40
2018-04-14T20:28:58.203Z,77.20
2018-04-14T20:31:25.795Z,77.30
2018-04-14T20:33:54.490Z,76.70
2018-04-14T20:36:22.962Z,77.30
2018-04-14T20:38:50.540Z,77.40
2018-04-14T20:41:18.978Z,78.10
2018-04-14T20:43:47.420Z,78.00
2018-04-14T20:46:17.847Z,78.00
2018-04-14T20:48:45.376Z,77.60
2018-04-14T20:51:13.949Z,77.70
2018-04-14T20:53:42.153Z,78.60
2018-04-14T20:56:10.600Z,78.30
2018-04-14T20:58:38.914Z,77.60
2018-04-14T21:01:06.637Z,77.70
2018-04-14T21:03:34.165Z,77.70
2018-04-14T21:06:02.818Z,78.00
2018-04-14T21:08:30.792Z,78.80
2018-04-14T21:10:59.291Z,79.50
2018-04-14T21:13:27.007Z,79.90
2018-04-14T21:15:55.291Z,81.10
2018-04-14T21:18:22.827Z,81.10
2018-04-14T21:20:50.359Z,81.40
2018-04-14T21:23:17.972Z,81.80
2018-04-14T21:25:46.407Z,82.40
2018-04-14T21:28:14.598Z,81.70
2018-04-14T21:30:42.189Z,81.40
2018-04-14T21:33:09.681Z,81.90
2018-04-14T21:35:37.380Z,81.40
2018-04-14T21:38:04.918Z,81.60
2018-04-14T21:40:32.445Z,81.90
2018-04-14T21:43:00.052Z,83.00
2018-04-14T21:45:27.554Z,82.60
2018-04-14T21:47:55.075Z,83.20
2018-04-14T21:50:22.618Z,83.90
2018-04-14T21:52:50.199Z,83.50
2018-04-14T21:55:17.748Z,83.10
2018-04-14T21:57:46.235Z,84.00
2018-04-14T22:00:13.819Z,84.30
2018-04-14T22:02:41.317Z,83.60
2018-04-14T22:05:08.844Z,84.00
2018-04-14T22:07:36.360Z,83.80
2018-04-14T22:10:03.976Z,84.40
2018-04-14T22:12:31.596Z,85.50
2018-04-14T22:15:00.123Z,85.10
2018-04-14T22:17:27.676Z,85.90
2018-04-14T22:19:56.133Z,85.90
2018-04-14T22:22:23.658Z,85.90
2018-04-14T22:27:51.579Z,85.90
2018-04-14T22:30:19.183Z,85.90
2018-04-14T22:32:46.708Z,85.70
2018-04-14T22:35:14.251Z,86.60
2018-04-14T22:37:41.847Z,85.80
2018-04-14T22:40:09.370Z,85.70
2018-04-14T22:45:37.924Z,85.70
2018-04-14T22:48:05.727Z,87.20
2018-04-14T22:50:33.255Z,87.70
2018-04-14T22:53:01.738Z,88.80
2018-04-14T22:55:30.303Z,87.60
2018-04-14T22:57:57.828Z,86.80
2018-04-14T23:00:25.530Z,87.20
2018-04-14T23:02:53.202Z,88.20
2018-04-14T23:05:20.729Z,89.30
2018-04-14T23:07:48.285Z,89.80
2018-04-14T23:10:15.857Z,90.00
2018-04-14T23:12:44.121Z,90.20
2018-04-14T23:15:11.696Z,90.10
2018-04-14T23:17:39.347Z,90.10
2018-04-14T23:20:08.848Z,90.00
2018-04-14T23:22:36.365Z,89.10
2018-04-14T23:25:03.979Z,89.60
2018-04-14T23:27:31.471Z,89.20
2018-04-14T23:29:59.727Z,88.90
2018-04-14T23:32:28.161Z,88.90
2018-04-14T23:34:57.715Z,87.00
2018-04-14T23:37:26.151Z,88.20
2018-04-14T23:39:55.641Z,86.60
2018-04-14T23:42:23.160Z,86.00
2018-04-14T23:44:50.655Z,87.20
2018-04-14T23:47:18.245Z,85.60
2018-04-14T23:49:45.751Z,86.90
2018-04-14T23:52:14.196Z,86.80
2018-04-14T23:54:41.794Z,86.50
2018-04-14T23:57:09.416Z,86.90
2018-04-14T23:59:36.973Z,85.70
